Camp Smith, Hawaii
Current Conditions -  °F | °C
As of 2:53 PM on Sunday 23 Nov 2014 (Local Time) from PHNL Reporting Station
Broken Clouds Broken Clouds  
Wind Chill: 81°   Ceiling: 6000
Heat Index: 84°   Visibility: 10mi
Dew Point: 69°   Wind: 9mph
Humidity: 67%   Direction: 190°S
Pressure: 29.89"   Gusts: NA
Location:  21.3902°N, 157.908°W
Report Text: PHNL 240053Z 19008KT 10SM FEW036 SCT049 BKN060 27/21 A2989 RMK AO2 SLP122 T02720206
Loading
Personal Weather Stations






























Interactive Weather Map New forecast layout! Learn more

10-Day Weather Forecast

Advertisements
Track Severe Weather on mobile